EPWRLKTB

Guest
Details From EPWR - STRACHOWICE
To LKTB - Turany
Flight Number -
Tags generated
Created
Modified
Stats Distance 118 nm / 218 km
Max Altitude 8,200 ft / 2,499 m
Waypoints 3
Social Downloads 0
Likes 0
Share VATSIM

Download

Looking for another format? Having issues loading an existing format? Contact us
Advertisement - Login to hide

Notes

Basic altitude profile: - Ascent Rate: 2500ft/min - Ascent Speed: 250kts - Cruise Altitude: 35000ft - Cruise Speed: 420kts - Descent Rate: 1500ft/min - Descent Speed: 250kts

Route

EPWR TBV LKTB

ID Type Via Altitude Latitude Longitude Leg Dist Tot Dist Heading (true) Name
O EPWR APT - 0 ft / 0 m 51.10388˚ 16.88189˚ - 0 nm - STRACHOWICE
TBV NDB - 8,200 ft / 2,499 m 49.79584˚ 16.67886˚ 78 nm 78 nm 186° / 186° TREBOVA NDB
O LKTB APT - 0 ft / 0 m 49.15102˚ 16.69317˚ 38 nm 117 nm 179° / 179° Turany

Altitude Profile

Advertisement - Login to hide

EPWR

Details ICAO EPWR (WRO)
Name STRACHOWICE
Region Poland
Timezone Europe/Warsaw (UTC+1.0)
Stats Elevation 404 ft / 123 m (AMSL)
Location 51.103882° 16.881892°
Runways 1
Magnetic Variation 4.613° E

METAR

EPWR 161130Z 26005KT 230V290 9999 BKN037 01/00 Q1005

Decode

TAF

TAF TAF EPWR 160530Z 1606/1706 26005KT 9999 SCT033 PROB40 1607/1612 4000 BR BKN009 TEMPO 1617/1706 2500 -SHSN -SHRASN BR BKN006 BKN013CB

Decode

Departure Runways

ID Width Length Bearing (true) Bearing (mag) Surface Threshold Offset Overrun Length
12 197 ft / 60 m 8,192 ft / 2,497 m 115.99° 111.38° Concrete 0 ft / 0 m 0 ft / 0 m
30 197 ft / 60 m 8,192 ft / 2,497 m 296.01° 291.40° Concrete 0 ft / 0 m 0 ft / 0 m

LKTB

Details ICAO LKTB (BRQ)
Name Turany
Region Czech Republic
Timezone Europe/Prague (UTC+1.0)
Stats Elevation 777 ft / 237 m (AMSL)
Location 49.151016° 16.693171°
Runways 2
Magnetic Variation 4.378° E

METAR

LKTB 161130Z 27005KT 9999 FEW012 SCT046 03/M00 Q1006 NOSIG

Decode

TAF

TAF LKTB 160500Z 1606/1712 31004KT CAVOK TEMPO 1610/1618 9999 BKN035 BECMG 1616/1618 VRB02KT TEMPO 1623/1703 9999 BKN035 BECMG 1701/1704 29004KT

Decode

Destination Runways

ID Width Length Bearing (true) Bearing (mag) Surface Threshold Offset Overrun Length
09 98 ft / 30 m 3,272 ft / 997 m 97.50° 93.12° Grass 0 ft / 0 m 0 ft / 0 m
10 197 ft / 60 m 8,674 ft / 2,644 m 97.52° 93.14° Concrete 0 ft / 0 m 0 ft / 0 m
27 98 ft / 30 m 3,272 ft / 997 m 277.51° 273.13° Grass 0 ft / 0 m 0 ft / 0 m
28 197 ft / 60 m 8,674 ft / 2,644 m 277.55° 273.17° Concrete 0 ft / 0 m 0 ft / 0 m

Approach Navaids

Runway Type Ident Frequency Range Bearing (true) Bearing (mag) Slope Elevation
28 Localiser BO 111.50 MHz 18 nm / 33 km 277.51° 273.13° - 771 ft / 235 m (AMSL)
28 Glidescope BO 111.50 MHz 10 nm / 19 km 277.53° 273.15° 3.00° 771 ft / 235 m (AMSL)
28 DME BO 111.50 MHz 18 nm / 33 km - - - 785 ft / 239 m (AMSL)